sensor_id;sensor_type;location;lat;lon;timestamp;P1;durP1;ratioP1;P2;durP2;ratioP2
27796;SDS011;15177;50.844;4.412;2022-08-01T00:02:15;4.38;;;1.73;;
27796;SDS011;15177;50.844;4.412;2022-08-01T00:04:41;3.78;;;1.85;;
27796;SDS011;15177;50.844;4.412;2022-08-01T00:07:06;6.18;;;1.80;;
27796;SDS011;15177;50.844;4.412;2022-08-01T00:09:32;3.88;;;2.30;;
27796;SDS011;15177;50.844;4.412;2022-08-01T00:11:58;5.28;;;2.33;;
27796;SDS011;15177;50.844;4.412;2022-08-01T00:14:23;6.88;;;2.30;;
27796;SDS011;15177;50.844;4.412;2022-08-01T00:16:49;7.10;;;2.58;;
27796;SDS011;15177;50.844;4.412;2022-08-01T00:19:15;6.30;;;2.47;;
27796;SDS011;15177;50.844;4.412;2022-08-01T00:21:40;7.95;;;2.40;;
27796;SDS011;15177;50.844;4.412;2022-08-01T00:24:06;5.40;;;2.65;;
27796;SDS011;15177;50.844;4.412;2022-08-01T00:26:32;8.55;;;3.60;;
27796;SDS011;15177;50.844;4.412;2022-08-01T00:28:57;8.02;;;3.67;;
27796;SDS011;15177;50.844;4.412;2022-08-01T00:31:23;9.25;;;3.25;;
27796;SDS011;15177;50.844;4.412;2022-08-01T00:33:48;4.45;;;2.75;;
27796;SDS011;15177;50.844;4.412;2022-08-01T00:36:14;7.43;;;3.50;;
27796;SDS011;15177;50.844;4.412;2022-08-01T00:38:39;9.55;;;3.58;;
27796;SDS011;15177;50.844;4.412;2022-08-01T00:41:05;8.05;;;3.45;;
27796;SDS011;15177;50.844;4.412;2022-08-01T00:43:30;11.45;;;3.28;;
27796;SDS011;15177;50.844;4.412;2022-08-01T00:45:56;9.35;;;4.63;;
27796;SDS011;15177;50.844;4.412;2022-08-01T00:48:23;10.27;;;4.97;;
27796;SDS011;15177;50.844;4.412;2022-08-01T00:50:48;13.75;;;4.22;;
27796;SDS011;15177;50.844;4.412;2022-08-01T00:53:15;8.60;;;4.15;;
27796;SDS011;15177;50.844;4.412;2022-08-01T00:55:40;8.45;;;4.03;;
27796;SDS011;15177;50.844;4.412;2022-08-01T00:58:06;5.68;;;3.65;;
27796;SDS011;15177;50.844;4.412;2022-08-01T01:00:32;8.52;;;4.18;;
27796;SDS011;15177;50.844;4.412;2022-08-01T01:02:59;9.15;;;3.90;;
27796;SDS011;15177;50.844;4.412;2022-08-01T01:05:25;10.85;;;3.63;;
27796;SDS011;15177;50.844;4.412;2022-08-01T01:10:32;8.23;;;3.97;;
27796;SDS011;15177;50.844;4.412;2022-08-01T01:13:13;11.40;;;3.80;;
27796;SDS011;15177;50.844;4.412;2022-08-01T01:16:11;9.45;;;3.50;;
27796;SDS011;15177;50.844;4.412;2022-08-01T01:31:48;11.38;;;3.95;;
27796;SDS011;15177;50.844;4.412;2022-08-01T01:34:23;5.78;;;3.28;;
27796;SDS011;15177;50.844;4.412;2022-08-01T01:36:51;8.75;;;3.80;;
27796;SDS011;15177;50.844;4.412;2022-08-01T01:39:20;7.63;;;4.00;;
27796;SDS011;15177;50.844;4.412;2022-08-01T01:41:48;10.05;;;4.15;;
27796;SDS011;15177;50.844;4.412;2022-08-01T01:44:15;10.45;;;4.50;;
27796;SDS011;15177;50.844;4.412;2022-08-01T01:46:43;8.90;;;4.93;;
27796;SDS011;15177;50.844;4.412;2022-08-01T01:49:09;11.75;;;5.93;;
27796;SDS011;15177;50.844;4.412;2022-08-01T01:51:36;13.48;;;7.47;;
27796;SDS011;15177;50.844;4.412;2022-08-01T01:54:04;15.18;;;7.07;;
27796;SDS011;15177;50.844;4.412;2022-08-01T01:56:31;13.98;;;8.02;;
27796;SDS011;15177;50.844;4.412;2022-08-01T01:59:01;17.25;;;8.10;;
27796;SDS011;15177;50.844;4.412;2022-08-01T02:01:29;14.63;;;7.57;;
27796;SDS011;15177;50.844;4.412;2022-08-01T02:03:57;16.75;;;9.98;;
27796;SDS011;15177;50.844;4.412;2022-08-01T02:06:24;16.48;;;10.07;;
27796;SDS011;15177;50.844;4.412;2022-08-01T02:08:52;24.45;;;11.43;;
27796;SDS011;15177;50.844;4.412;2022-08-01T02:11:20;23.27;;;10.95;;
27796;SDS011;15177;50.844;4.412;2022-08-01T02:13:54;19.45;;;10.00;;
27796;SDS011;15177;50.844;4.412;2022-08-01T02:16:24;20.88;;;10.07;;
27796;SDS011;15177;50.844;4.412;2022-08-01T02:18:52;17.48;;;10.02;;
27796;SDS011;15177;50.844;4.412;2022-08-01T02:21:20;16.85;;;8.57;;
27796;SDS011;15177;50.844;4.412;2022-08-01T02:23:52;19.38;;;8.88;;
27796;SDS011;15177;50.844;4.412;2022-08-01T02:26:20;19.00;;;9.00;;
27796;SDS011;15177;50.844;4.412;2022-08-01T02:28:49;19.65;;;8.90;;
27796;SDS011;15177;50.844;4.412;2022-08-01T02:31:23;14.40;;;8.25;;
27796;SDS011;15177;50.844;4.412;2022-08-01T02:33:59;15.82;;;8.73;;
27796;SDS011;15177;50.844;4.412;2022-08-01T02:36:28;17.85;;;8.55;;
27796;SDS011;15177;50.844;4.412;2022-08-01T02:38:56;19.00;;;8.45;;
27796;SDS011;15177;50.844;4.412;2022-08-01T02:41:23;17.83;;;9.77;;
27796;SDS011;15177;50.844;4.412;2022-08-01T02:43:51;20.33;;;10.27;;
27796;SDS011;15177;50.844;4.412;2022-08-01T02:49:01;22.40;;;10.60;;
27796;SDS011;15177;50.844;4.412;2022-08-01T02:51:30;23.30;;;10.75;;
27796;SDS011;15177;50.844;4.412;2022-08-01T02:53:56;26.25;;;12.80;;
27796;SDS011;15177;50.844;4.412;2022-08-01T02:56:23;23.17;;;12.85;;
27796;SDS011;15177;50.844;4.412;2022-08-01T02:58:59;24.08;;;11.80;;
27796;SDS011;15177;50.844;4.412;2022-08-01T03:01:32;25.60;;;11.05;;
27796;SDS011;15177;50.844;4.412;2022-08-01T03:04:00;23.00;;;10.48;;
27796;SDS011;15177;50.844;4.412;2022-08-01T03:06:27;23.08;;;10.80;;
27796;SDS011;15177;50.844;4.412;2022-08-01T03:08:53;24.65;;;12.23;;
27796;SDS011;15177;50.844;4.412;2022-08-01T03:11:20;23.67;;;11.77;;
27796;SDS011;15177;50.844;4.412;2022-08-01T03:13:49;22.00;;;10.57;;
27796;SDS011;15177;50.844;4.412;2022-08-01T03:16:17;22.45;;;10.43;;
27796;SDS011;15177;50.844;4.412;2022-08-01T03:18:45;27.67;;;12.63;;
27796;SDS011;15177;50.844;4.412;2022-08-01T03:21:13;22.27;;;11.55;;
27796;SDS011;15177;50.844;4.412;2022-08-01T03:23:40;24.58;;;11.52;;
27796;SDS011;15177;50.844;4.412;2022-08-01T03:26:07;27.98;;;12.57;;
27796;SDS011;15177;50.844;4.412;2022-08-01T03:28:34;25.98;;;11.43;;
27796;SDS011;15177;50.844;4.412;2022-08-01T03:31:02;19.05;;;10.70;;
27796;SDS011;15177;50.844;4.412;2022-08-01T03:33:28;25.83;;;12.38;;
27796;SDS011;15177;50.844;4.412;2022-08-01T03:35:54;26.15;;;11.32;;
27796;SDS011;15177;50.844;4.412;2022-08-01T03:38:23;22.15;;;11.13;;
27796;SDS011;15177;50.844;4.412;2022-08-01T03:40:58;29.83;;;10.75;;
27796;SDS011;15177;50.844;4.412;2022-08-01T03:43:38;22.98;;;10.95;;
27796;SDS011;15177;50.844;4.412;2022-08-01T03:46:09;23.08;;;11.27;;
27796;SDS011;15177;50.844;4.412;2022-08-01T03:48:45;22.90;;;11.38;;
27796;SDS011;15177;50.844;4.412;2022-08-01T03:51:13;23.30;;;12.13;;
27796;SDS011;15177;50.844;4.412;2022-08-01T03:53:41;28.20;;;12.15;;
27796;SDS011;15177;50.844;4.412;2022-08-01T03:56:09;23.23;;;12.32;;
27796;SDS011;15177;50.844;4.412;2022-08-01T03:58:40;21.90;;;11.35;;
27796;SDS011;15177;50.844;4.412;2022-08-01T04:01:07;20.52;;;12.15;;
27796;SDS011;15177;50.844;4.412;2022-08-01T04:03:36;19.48;;;12.57;;
27796;SDS011;15177;50.844;4.412;2022-08-01T04:06:05;19.52;;;12.52;;
27796;SDS011;15177;50.844;4.412;2022-08-01T04:08:35;25.98;;;13.45;;
27796;SDS011;15177;50.844;4.412;2022-08-01T04:11:03;25.95;;;14.27;;
27796;SDS011;15177;50.844;4.412;2022-08-01T04:13:30;27.95;;;14.05;;
27796;SDS011;15177;50.844;4.412;2022-08-01T04:15:57;28.23;;;14.55;;
27796;SDS011;15177;50.844;4.412;2022-08-01T04:18:23;25.35;;;14.18;;
27796;SDS011;15177;50.844;4.412;2022-08-01T04:20:49;24.60;;;13.85;;
27796;SDS011;15177;50.844;4.412;2022-08-01T04:23:15;31.23;;;14.85;;
27796;SDS011;15177;50.844;4.412;2022-08-01T04:25:43;27.60;;;14.07;;
27796;SDS011;15177;50.844;4.412;2022-08-01T04:28:12;25.98;;;15.07;;
27796;SDS011;15177;50.844;4.412;2022-08-01T04:30:43;27.45;;;14.75;;
27796;SDS011;15177;50.844;4.412;2022-08-01T04:33:13;26.58;;;15.02;;
27796;SDS011;15177;50.844;4.412;2022-08-01T04:35:41;24.30;;;14.50;;
27796;SDS011;15177;50.844;4.412;2022-08-01T04:38:10;21.88;;;12.63;;
27796;SDS011;15177;50.844;4.412;2022-08-01T04:40:41;21.58;;;13.00;;
27796;SDS011;15177;50.844;4.412;2022-08-01T04:43:10;22.85;;;14.23;;
27796;SDS011;15177;50.844;4.412;2022-08-01T04:45:36;22.58;;;13.70;;
27796;SDS011;15177;50.844;4.412;2022-08-01T04:48:04;26.13;;;15.88;;
27796;SDS011;15177;50.844;4.412;2022-08-01T04:50:31;25.88;;;16.00;;
27796;SDS011;15177;50.844;4.412;2022-08-01T04:52:57;32.92;;;18.35;;
27796;SDS011;15177;50.844;4.412;2022-08-01T04:55:23;32.92;;;19.02;;
27796;SDS011;15177;50.844;4.412;2022-08-01T04:57:49;26.17;;;15.18;;
27796;SDS011;15177;50.844;4.412;2022-08-01T05:00:14;26.50;;;15.52;;
27796;SDS011;15177;50.844;4.412;2022-08-01T05:02:43;22.70;;;14.02;;
27796;SDS011;15177;50.844;4.412;2022-08-01T05:05:09;24.52;;;13.80;;
27796;SDS011;15177;50.844;4.412;2022-08-01T05:07:35;25.67;;;14.20;;
27796;SDS011;15177;50.844;4.412;2022-08-01T05:10:01;24.15;;;13.50;;
27796;SDS011;15177;50.844;4.412;2022-08-01T05:12:30;25.40;;;15.20;;
27796;SDS011;15177;50.844;4.412;2022-08-01T05:14:59;23.83;;;14.43;;
27796;SDS011;15177;50.844;4.412;2022-08-01T05:17:26;28.42;;;16.10;;
27796;SDS011;15177;50.844;4.412;2022-08-01T05:19:52;24.60;;;14.23;;
27796;SDS011;15177;50.844;4.412;2022-08-01T05:22:17;25.45;;;14.93;;
27796;SDS011;15177;50.844;4.412;2022-08-01T05:24:43;25.77;;;14.40;;
27796;SDS011;15177;50.844;4.412;2022-08-01T05:27:09;26.58;;;14.85;;
27796;SDS011;15177;50.844;4.412;2022-08-01T05:29:34;21.02;;;13.82;;
27796;SDS011;15177;50.844;4.412;2022-08-01T05:32:00;25.25;;;14.60;;
27796;SDS011;15177;50.844;4.412;2022-08-01T05:34:26;19.20;;;11.90;;
27796;SDS011;15177;50.844;4.412;2022-08-01T05:36:52;18.88;;;11.05;;
27796;SDS011;15177;50.844;4.412;2022-08-01T05:39:18;17.52;;;10.93;;
27796;SDS011;15177;50.844;4.412;2022-08-01T05:41:44;18.73;;;11.00;;
27796;SDS011;15177;50.844;4.412;2022-08-01T05:44:09;19.40;;;11.65;;
27796;SDS011;15177;50.844;4.412;2022-08-01T05:46:35;21.90;;;12.52;;
27796;SDS011;15177;50.844;4.412;2022-08-01T05:49:02;16.98;;;10.82;;
27796;SDS011;15177;50.844;4.412;2022-08-01T05:51:29;20.63;;;13.02;;
27796;SDS011;15177;50.844;4.412;2022-08-01T05:53:56;18.25;;;11.20;;
27796;SDS011;15177;50.844;4.412;2022-08-01T05:56:22;16.30;;;11.13;;
27796;SDS011;15177;50.844;4.412;2022-08-01T05:58:49;16.83;;;11.38;;
27796;SDS011;15177;50.844;4.412;2022-08-01T06:01:17;15.40;;;10.93;;
27796;SDS011;15177;50.844;4.412;2022-08-01T06:03:43;15.70;;;10.05;;
27796;SDS011;15177;50.844;4.412;2022-08-01T06:06:09;21.83;;;10.05;;
27796;SDS011;15177;50.844;4.412;2022-08-01T06:08:35;17.67;;;11.82;;
27796;SDS011;15177;50.844;4.412;2022-08-01T06:11:00;15.38;;;9.80;;
27796;SDS011;15177;50.844;4.412;2022-08-01T06:13:26;18.23;;;10.35;;
27796;SDS011;15177;50.844;4.412;2022-08-01T06:15:52;17.05;;;11.55;;
27796;SDS011;15177;50.844;4.412;2022-08-01T06:18:17;15.63;;;10.27;;
27796;SDS011;15177;50.844;4.412;2022-08-01T06:20:43;14.15;;;8.95;;
27796;SDS011;15177;50.844;4.412;2022-08-01T06:23:09;14.60;;;9.55;;
27796;SDS011;15177;50.844;4.412;2022-08-01T06:25:35;11.70;;;8.82;;
27796;SDS011;15177;50.844;4.412;2022-08-01T06:28:01;14.65;;;10.32;;
27796;SDS011;15177;50.844;4.412;2022-08-01T06:30:27;13.68;;;8.82;;
27796;SDS011;15177;50.844;4.412;2022-08-01T06:32:53;15.02;;;9.98;;
27796;SDS011;15177;50.844;4.412;2022-08-01T06:35:20;13.73;;;9.45;;
27796;SDS011;15177;50.844;4.412;2022-08-01T06:37:46;11.85;;;9.40;;
27796;SDS011;15177;50.844;4.412;2022-08-01T06:40:12;11.93;;;8.80;;
27796;SDS011;15177;50.844;4.412;2022-08-01T06:42:38;15.77;;;9.70;;
27796;SDS011;15177;50.844;4.412;2022-08-01T06:45:05;19.30;;;10.02;;
27796;SDS011;15177;50.844;4.412;2022-08-01T06:47:33;13.55;;;8.55;;
27796;SDS011;15177;50.844;4.412;2022-08-01T06:49:59;14.20;;;8.73;;
27796;SDS011;15177;50.844;4.412;2022-08-01T06:52:25;10.95;;;6.90;;
27796;SDS011;15177;50.844;4.412;2022-08-01T06:54:50;13.73;;;7.90;;
27796;SDS011;15177;50.844;4.412;2022-08-01T06:57:16;11.15;;;7.00;;
27796;SDS011;15177;50.844;4.412;2022-08-01T06:59:42;11.25;;;7.10;;
27796;SDS011;15177;50.844;4.412;2022-08-01T07:02:08;11.13;;;7.30;;
27796;SDS011;15177;50.844;4.412;2022-08-01T07:04:34;13.18;;;6.28;;
27796;SDS011;15177;50.844;4.412;2022-08-01T07:06:59;9.60;;;6.30;;
27796;SDS011;15177;50.844;4.412;2022-08-01T07:09:26;10.98;;;5.93;;
27796;SDS011;15177;50.844;4.412;2022-08-01T07:11:52;8.50;;;6.13;;
27796;SDS011;15177;50.844;4.412;2022-08-01T07:14:19;11.25;;;6.68;;
27796;SDS011;15177;50.844;4.412;2022-08-01T07:16:47;11.48;;;5.65;;
27796;SDS011;15177;50.844;4.412;2022-08-01T07:19:13;9.25;;;5.80;;
27796;SDS011;15177;50.844;4.412;2022-08-01T07:21:38;10.30;;;6.15;;
27796;SDS011;15177;50.844;4.412;2022-08-01T07:24:05;8.05;;;5.57;;
27796;SDS011;15177;50.844;4.412;2022-08-01T07:26:31;7.57;;;5.47;;
27796;SDS011;15177;50.844;4.412;2022-08-01T07:28:57;7.50;;;4.82;;
27796;SDS011;15177;50.844;4.412;2022-08-01T07:31:23;7.75;;;4.75;;
27796;SDS011;15177;50.844;4.412;2022-08-01T07:33:49;5.32;;;4.20;;
27796;SDS011;15177;50.844;4.412;2022-08-01T07:36:15;6.38;;;4.47;;
27796;SDS011;15177;50.844;4.412;2022-08-01T07:38:41;8.60;;;4.35;;
27796;SDS011;15177;50.844;4.412;2022-08-01T07:41:09;6.72;;;4.10;;
27796;SDS011;15177;50.844;4.412;2022-08-01T07:43:35;7.10;;;4.68;;
27796;SDS011;15177;50.844;4.412;2022-08-01T07:46:01;6.68;;;5.03;;
27796;SDS011;15177;50.844;4.412;2022-08-01T07:48:28;6.20;;;4.38;;
27796;SDS011;15177;50.844;4.412;2022-08-01T07:50:54;7.35;;;4.55;;
27796;SDS011;15177;50.844;4.412;2022-08-01T07:53:20;8.95;;;4.35;;
27796;SDS011;15177;50.844;4.412;2022-08-01T07:55:46;5.70;;;4.55;;
27796;SDS011;15177;50.844;4.412;2022-08-01T07:58:12;6.95;;;4.70;;
27796;SDS011;15177;50.844;4.412;2022-08-01T08:00:38;7.28;;;4.18;;
27796;SDS011;15177;50.844;4.412;2022-08-01T08:03:04;7.55;;;3.97;;
27796;SDS011;15177;50.844;4.412;2022-08-01T08:05:29;4.80;;;4.30;;
27796;SDS011;15177;50.844;4.412;2022-08-01T08:07:57;5.88;;;4.15;;
27796;SDS011;15177;50.844;4.412;2022-08-01T08:10:22;4.90;;;3.60;;
27796;SDS011;15177;50.844;4.412;2022-08-01T08:12:48;4.22;;;3.10;;
27796;SDS011;15177;50.844;4.412;2022-08-01T08:15:14;2.58;;;2.30;;
27796;SDS011;15177;50.844;4.412;2022-08-01T08:17:40;8.20;;;3.08;;
27796;SDS011;15177;50.844;4.412;2022-08-01T08:20:06;4.45;;;2.70;;
27796;SDS011;15177;50.844;4.412;2022-08-01T08:22:32;3.47;;;2.50;;
27796;SDS011;15177;50.844;4.412;2022-08-01T08:24:59;3.97;;;1.60;;
27796;SDS011;15177;50.844;4.412;2022-08-01T08:27:24;3.83;;;1.80;;
27796;SDS011;15177;50.844;4.412;2022-08-01T08:29:51;2.58;;;1.90;;
27796;SDS011;15177;50.844;4.412;2022-08-01T08:32:17;3.90;;;1.90;;
27796;SDS011;15177;50.844;4.412;2022-08-01T08:34:43;3.40;;;1.63;;
27796;SDS011;15177;50.844;4.412;2022-08-01T08:37:08;2.53;;;1.65;;
27796;SDS011;15177;50.844;4.412;2022-08-01T08:39:35;2.17;;;1.63;;
27796;SDS011;15177;50.844;4.412;2022-08-01T08:42:00;3.17;;;1.40;;
27796;SDS011;15177;50.844;4.412;2022-08-01T08:44:30;2.75;;;1.67;;
27796;SDS011;15177;50.844;4.412;2022-08-01T08:46:56;2.10;;;1.85;;
27796;SDS011;15177;50.844;4.412;2022-08-01T08:49:26;4.03;;;1.70;;
27796;SDS011;15177;50.844;4.412;2022-08-01T08:51:53;3.33;;;1.90;;
27796;SDS011;15177;50.844;4.412;2022-08-01T08:54:24;1.63;;;1.40;;
27796;SDS011;15177;50.844;4.412;2022-08-01T08:56:51;4.43;;;1.45;;
27796;SDS011;15177;50.844;4.412;2022-08-01T08:59:17;3.67;;;1.20;;
27796;SDS011;15177;50.844;4.412;2022-08-01T09:01:44;3.95;;;1.58;;
27796;SDS011;15177;50.844;4.412;2022-08-01T09:04:10;1.38;;;1.00;;
27796;SDS011;15177;50.844;4.412;2022-08-01T09:06:36;1.70;;;1.05;;
27796;SDS011;15177;50.844;4.412;2022-08-01T09:09:03;1.73;;;1.10;;
27796;SDS011;15177;50.844;4.412;2022-08-01T09:11:29;1.65;;;1.23;;
27796;SDS011;15177;50.844;4.412;2022-08-01T09:14:01;1.67;;;1.15;;
27796;SDS011;15177;50.844;4.412;2022-08-01T09:16:32;1.20;;;1.05;;
27796;SDS011;15177;50.844;4.412;2022-08-01T09:24:28;2.17;;;1.20;;
27796;SDS011;15177;50.844;4.412;2022-08-01T09:26:54;3.30;;;1.10;;
27796;SDS011;15177;50.844;4.412;2022-08-01T09:29:22;1.70;;;1.30;;
27796;SDS011;15177;50.844;4.412;2022-08-01T09:31:49;6.32;;;1.70;;
27796;SDS011;15177;50.844;4.412;2022-08-01T09:34:16;2.05;;;1.17;;
27796;SDS011;15177;50.844;4.412;2022-08-01T09:36:55;2.63;;;1.00;;
27796;SDS011;15177;50.844;4.412;2022-08-01T09:39:26;5.10;;;1.60;;
27796;SDS011;15177;50.844;4.412;2022-08-01T09:41:53;2.20;;;1.85;;
27796;SDS011;15177;50.844;4.412;2022-08-01T09:44:36;3.35;;;1.33;;
27796;SDS011;15177;50.844;4.412;2022-08-01T09:47:04;3.63;;;1.60;;
27796;SDS011;15177;50.844;4.412;2022-08-01T09:49:39;3.30;;;1.40;;
27796;SDS011;15177;50.844;4.412;2022-08-01T10:00:25;2.63;;;1.40;;
27796;SDS011;15177;50.844;4.412;2022-08-01T10:02:51;2.42;;;1.50;;
27796;SDS011;15177;50.844;4.412;2022-08-01T10:05:17;2.22;;;1.20;;
27796;SDS011;15177;50.844;4.412;2022-08-01T10:10:22;2.38;;;1.40;;
27796;SDS011;15177;50.844;4.412;2022-08-01T10:12:47;2.60;;;1.30;;
27796;SDS011;15177;50.844;4.412;2022-08-01T10:15:15;1.48;;;0.90;;
27796;SDS011;15177;50.844;4.412;2022-08-01T10:17:42;1.90;;;1.13;;
27796;SDS011;15177;50.844;4.412;2022-08-01T10:20:15;2.25;;;1.00;;
27796;SDS011;15177;50.844;4.412;2022-08-01T10:22:42;1.30;;;1.00;;
27796;SDS011;15177;50.844;4.412;2022-08-01T10:25:08;1.13;;;0.85;;
27796;SDS011;15177;50.844;4.412;2022-08-01T10:27:34;1.10;;;1.00;;
27796;SDS011;15177;50.844;4.412;2022-08-01T10:30:03;4.20;;;1.00;;
27796;SDS011;15177;50.844;4.412;2022-08-01T10:32:30;2.42;;;1.20;;
27796;SDS011;15177;50.844;4.412;2022-08-01T10:34:58;1.65;;;1.27;;
27796;SDS011;15177;50.844;4.412;2022-08-01T10:37:24;1.90;;;1.10;;
27796;SDS011;15177;50.844;4.412;2022-08-01T10:39:50;0.82;;;0.70;;
27796;SDS011;15177;50.844;4.412;2022-08-01T10:42:17;2.10;;;1.10;;
27796;SDS011;15177;50.844;4.412;2022-08-01T10:44:43;1.90;;;1.00;;
27796;SDS011;15177;50.844;4.412;2022-08-01T10:47:12;2.50;;;1.00;;
27796;SDS011;15177;50.844;4.412;2022-08-01T10:49:53;0.88;;;0.80;;
27796;SDS011;15177;50.844;4.412;2022-08-01T10:52:26;2.13;;;1.48;;
27796;SDS011;15177;50.844;4.412;2022-08-01T11:00:06;1.83;;;1.02;;
27796;SDS011;15177;50.844;4.412;2022-08-01T11:02:32;2.35;;;1.48;;
27796;SDS011;15177;50.844;4.412;2022-08-01T11:05:02;2.45;;;1.38;;
27796;SDS011;15177;50.844;4.412;2022-08-01T11:07:48;2.10;;;1.27;;
27796;SDS011;15177;50.844;4.412;2022-08-01T11:10:27;2.08;;;1.63;;
27796;SDS011;15177;50.844;4.412;2022-08-01T11:13:06;1.77;;;1.45;;
27796;SDS011;15177;50.844;4.412;2022-08-01T11:15:36;2.10;;;1.30;;
27796;SDS011;15177;50.844;4.412;2022-08-01T11:20:57;3.80;;;1.05;;
27796;SDS011;15177;50.844;4.412;2022-08-01T11:23:25;1.08;;;0.75;;
27796;SDS011;15177;50.844;4.412;2022-08-01T11:28:22;1.02;;;0.88;;
27796;SDS011;15177;50.844;4.412;2022-08-01T11:30:53;0.98;;;0.77;;
27796;SDS011;15177;50.844;4.412;2022-08-01T11:38:35;1.20;;;0.70;;
27796;SDS011;15177;50.844;4.412;2022-08-01T11:41:09;1.55;;;0.80;;
27796;SDS011;15177;50.844;4.412;2022-08-01T11:43:35;1.67;;;0.75;;
27796;SDS011;15177;50.844;4.412;2022-08-01T11:46:18;0.98;;;0.80;;
27796;SDS011;15177;50.844;4.412;2022-08-01T11:48:44;2.97;;;0.85;;
27796;SDS011;15177;50.844;4.412;2022-08-01T11:51:15;1.73;;;0.80;;
27796;SDS011;15177;50.844;4.412;2022-08-01T11:53:47;1.17;;;0.88;;
27796;SDS011;15177;50.844;4.412;2022-08-01T11:56:14;3.13;;;0.90;;
27796;SDS011;15177;50.844;4.412;2022-08-01T11:58:44;0.98;;;0.80;;
27796;SDS011;15177;50.844;4.412;2022-08-01T12:01:11;3.15;;;0.88;;
27796;SDS011;15177;50.844;4.412;2022-08-01T12:03:37;0.90;;;0.90;;
27796;SDS011;15177;50.844;4.412;2022-08-01T12:06:03;1.17;;;0.70;;
27796;SDS011;15177;50.844;4.412;2022-08-01T12:08:30;1.42;;;1.00;;
27796;SDS011;15177;50.844;4.412;2022-08-01T12:11:02;3.25;;;0.90;;
27796;SDS011;15177;50.844;4.412;2022-08-01T12:13:39;1.60;;;1.00;;
27796;SDS011;15177;50.844;4.412;2022-08-01T12:16:08;4.03;;;0.98;;
27796;SDS011;15177;50.844;4.412;2022-08-01T12:18:38;3.05;;;1.10;;
27796;SDS011;15177;50.844;4.412;2022-08-01T12:21:05;2.08;;;0.90;;
27796;SDS011;15177;50.844;4.412;2022-08-01T12:23:31;1.42;;;0.80;;
27796;SDS011;15177;50.844;4.412;2022-08-01T12:25:56;2.65;;;1.02;;
27796;SDS011;15177;50.844;4.412;2022-08-01T12:28:22;4.40;;;1.10;;
27796;SDS011;15177;50.844;4.412;2022-08-01T12:30:48;2.50;;;0.90;;
27796;SDS011;15177;50.844;4.412;2022-08-01T12:33:16;3.83;;;1.30;;
27796;SDS011;15177;50.844;4.412;2022-08-01T12:35:43;3.42;;;1.55;;
27796;SDS011;15177;50.844;4.412;2022-08-01T12:38:21;2.05;;;1.00;;
27796;SDS011;15177;50.844;4.412;2022-08-01T12:40:48;4.68;;;1.17;;
27796;SDS011;15177;50.844;4.412;2022-08-01T12:43:17;3.45;;;1.17;;
27796;SDS011;15177;50.844;4.412;2022-08-01T12:45:44;1.60;;;1.27;;
27796;SDS011;15177;50.844;4.412;2022-08-01T12:48:12;2.95;;;0.90;;
27796;SDS011;15177;50.844;4.412;2022-08-01T12:50:40;3.95;;;1.30;;
27796;SDS011;15177;50.844;4.412;2022-08-01T12:53:12;2.15;;;1.08;;
27796;SDS011;15177;50.844;4.412;2022-08-01T12:55:44;3.13;;;1.00;;
27796;SDS011;15177;50.844;4.412;2022-08-01T12:58:18;2.45;;;1.02;;
27796;SDS011;15177;50.844;4.412;2022-08-01T13:00:46;2.70;;;0.88;;
27796;SDS011;15177;50.844;4.412;2022-08-01T13:03:14;3.78;;;0.85;;
27796;SDS011;15177;50.844;4.412;2022-08-01T13:05:45;2.08;;;1.00;;
27796;SDS011;15177;50.844;4.412;2022-08-01T13:08:14;4.25;;;1.40;;
27796;SDS011;15177;50.844;4.412;2022-08-01T13:10:41;1.83;;;0.90;;
27796;SDS011;15177;50.844;4.412;2022-08-01T13:13:07;4.93;;;1.27;;
27796;SDS011;15177;50.844;4.412;2022-08-01T13:15:35;2.88;;;1.13;;
27796;SDS011;15177;50.844;4.412;2022-08-01T13:18:25;3.80;;;1.10;;
27796;SDS011;15177;50.844;4.412;2022-08-01T13:23:33;2.17;;;0.95;;
27796;SDS011;15177;50.844;4.412;2022-08-01T13:25:59;2.63;;;1.10;;
27796;SDS011;15177;50.844;4.412;2022-08-01T13:28:26;2.60;;;1.35;;
27796;SDS011;15177;50.844;4.412;2022-08-01T13:30:59;1.83;;;1.17;;
27796;SDS011;15177;50.844;4.412;2022-08-01T13:33:39;3.05;;;1.20;;
27796;SDS011;15177;50.844;4.412;2022-08-01T13:36:11;2.28;;;1.10;;
27796;SDS011;15177;50.844;4.412;2022-08-01T13:38:38;3.03;;;1.00;;
27796;SDS011;15177;50.844;4.412;2022-08-01T13:41:16;1.75;;;1.00;;
27796;SDS011;15177;50.844;4.412;2022-08-01T13:43:42;1.65;;;0.85;;
27796;SDS011;15177;50.844;4.412;2022-08-01T13:46:07;1.75;;;0.98;;
27796;SDS011;15177;50.844;4.412;2022-08-01T13:48:33;3.00;;;1.30;;
27796;SDS011;15177;50.844;4.412;2022-08-01T13:51:00;4.53;;;1.17;;
27796;SDS011;15177;50.844;4.412;2022-08-01T13:53:26;2.05;;;1.00;;
27796;SDS011;15177;50.844;4.412;2022-08-01T13:55:52;1.08;;;0.93;;
27796;SDS011;15177;50.844;4.412;2022-08-01T13:58:18;1.63;;;1.00;;
27796;SDS011;15177;50.844;4.412;2022-08-01T14:00:43;2.72;;;1.40;;
27796;SDS011;15177;50.844;4.412;2022-08-01T14:03:11;1.05;;;0.82;;
27796;SDS011;15177;50.844;4.412;2022-08-01T14:05:37;3.80;;;0.90;;
27796;SDS011;15177;50.844;4.412;2022-08-01T14:08:04;1.75;;;1.02;;
27796;SDS011;15177;50.844;4.412;2022-08-01T14:10:30;3.60;;;0.80;;
27796;SDS011;15177;50.844;4.412;2022-08-01T14:12:55;2.63;;;0.73;;
27796;SDS011;15177;50.844;4.412;2022-08-01T14:15:22;3.90;;;1.20;;
27796;SDS011;15177;50.844;4.412;2022-08-01T14:17:48;2.30;;;1.05;;
27796;SDS011;15177;50.844;4.412;2022-08-01T14:20:14;2.00;;;1.00;;
27796;SDS011;15177;50.844;4.412;2022-08-01T14:22:40;2.60;;;1.10;;
27796;SDS011;15177;50.844;4.412;2022-08-01T14:25:06;2.33;;;1.05;;
27796;SDS011;15177;50.844;4.412;2022-08-01T14:27:32;2.70;;;1.60;;
27796;SDS011;15177;50.844;4.412;2022-08-01T14:30:01;2.25;;;1.00;;
27796;SDS011;15177;50.844;4.412;2022-08-01T14:32:27;1.63;;;1.00;;
27796;SDS011;15177;50.844;4.412;2022-08-01T14:34:53;2.78;;;0.93;;
27796;SDS011;15177;50.844;4.412;2022-08-01T14:37:19;1.98;;;1.23;;
27796;SDS011;15177;50.844;4.412;2022-08-01T14:39:46;2.67;;;1.00;;
27796;SDS011;15177;50.844;4.412;2022-08-01T14:42:13;3.47;;;1.10;;
27796;SDS011;15177;50.844;4.412;2022-08-01T14:44:38;1.58;;;0.85;;
27796;SDS011;15177;50.844;4.412;2022-08-01T14:47:04;4.32;;;1.23;;
27796;SDS011;15177;50.844;4.412;2022-08-01T14:49:30;1.15;;;0.95;;
27796;SDS011;15177;50.844;4.412;2022-08-01T14:51:55;2.55;;;1.05;;
27796;SDS011;15177;50.844;4.412;2022-08-01T14:54:21;3.95;;;1.02;;
27796;SDS011;15177;50.844;4.412;2022-08-01T14:56:47;3.10;;;1.20;;
27796;SDS011;15177;50.844;4.412;2022-08-01T14:59:12;1.65;;;1.00;;
27796;SDS011;15177;50.844;4.412;2022-08-01T15:01:38;1.10;;;0.73;;
27796;SDS011;15177;50.844;4.412;2022-08-01T15:04:04;3.72;;;1.20;;
27796;SDS011;15177;50.844;4.412;2022-08-01T15:06:29;3.22;;;1.00;;
27796;SDS011;15177;50.844;4.412;2022-08-01T15:08:55;2.28;;;0.90;;
27796;SDS011;15177;50.844;4.412;2022-08-01T15:11:20;1.90;;;1.10;;
27796;SDS011;15177;50.844;4.412;2022-08-01T15:13:46;1.77;;;1.00;;
27796;SDS011;15177;50.844;4.412;2022-08-01T15:16:31;3.17;;;1.00;;
27796;SDS011;15177;50.844;4.412;2022-08-01T15:18:57;3.67;;;1.20;;
27796;SDS011;15177;50.844;4.412;2022-08-01T15:21:23;2.42;;;0.88;;
27796;SDS011;15177;50.844;4.412;2022-08-01T15:23:48;0.90;;;0.73;;
27796;SDS011;15177;50.844;4.412;2022-08-01T15:26:14;4.65;;;1.10;;
27796;SDS011;15177;50.844;4.412;2022-08-01T15:28:40;4.93;;;1.33;;
27796;SDS011;15177;50.844;4.412;2022-08-01T15:31:06;4.72;;;1.13;;
27796;SDS011;15177;50.844;4.412;2022-08-01T15:33:31;1.00;;;0.90;;
27796;SDS011;15177;50.844;4.412;2022-08-01T15:35:57;1.55;;;0.98;;